Airfield :
LOGIN :

Register | Disclaimer

   EN    FR    IT 

 










Legend :    VFR   Marginal VFR   IFR   Intensive IFR   Very Intensive IFR
Visi :
Ceiling :
>= 8 km
>= 3000ft
5 to 8 km
1000 to 3000 ft
1500m to 5 km
500 to 1000 ft
800 to 1500m
200 to 500 ft
< 800m
< 200 ft
Symbols :   Thunderstorms  Fog  Heavy snow  Heavy precipitations  Wind > 20 kt
SIGMETs :     Misc.  Thunderstorms  Icing  Turbulence  Mountain Waves  Volcanic Ashes






- Airport Elevation : 1197 ft
- IATA code : SPM


ETAD - Spangdahlem Ab

CURRENT METAR :
  • 191911Z AUTO 21010KT 9999 OVC047 04/M01 A3020 RMK AO2 SLP233 $

EXPIRED METARs :
  • 191856Z AUTO 20009KT 9999 OVC049 03/M01 A3020 RMK AO2 SLP233 T00341012 $
  • 191841Z AUTO 20008KT 9999 OVC049 03/M01 A3020 RMK AO2 SLP233 $
  • 191826Z AUTO 21008KT 9999 BKN050 03/M02 A3020 RMK AO2 SLP233 $
  • 191756Z AUTO 21006KT 9999 FEW039 02/M02 A3020 RMK AO2 SLP233 T00231019 10070 20023 53007 $
  • 191656Z AUTO 22006KT 9999 SCT042 04/M02 A3019 RMK AO2 SLP227 T00421020 $

TAF TAF ETAD
Valid from the 19 at 13:00 until the 20 at 19:00 UTC


191300Z 1913/2019 27012G20KT 9999 SCT030 SCT050 QNH3015INS
BECMG 1914/1915 24010G15KT 9999 SCT045 BKN150 QNH3016INS
BECMG 1919/1920 24010KT 9999 BKN015 OVC025 620208 QNH3016INS
BECMG 1921/1922 24009KT 8000 -SHRA OVC010 610209 QNH3005INS
BECMG 2005/2006 22010G15KT 9999 NSW OVC007 620209 QNH3006INS
BECMG 2009/2010 21015G25KT 9999 BKN015 QNH3005INS
BECMG 2015/2016 21015G25KT 8000 -SHRA BKN012 QNH2995INS TX07/1914Z TN02/1920Z



MET'MAP, your aeronautical weather chart ! - Copyright ORBIFLY December 2007 - Disclaimer

ORBIFLY MET'MAP TEAM :

Programming & Development : Alexandra Zaïnal
Concept & original design : Baudouin d'Aumeries
Assistance for programming : Marc-Olivier Méhu
Technical & hardware support : Manuel Goepfert

Contact : metmap@orbifly.com




SOURCES & CREDITS :

   NOAA